createdAt,value
2022-08-28T00:00:31.327Z,10.02
2022-08-28T00:02:59.123Z,9.90
2022-08-28T00:05:29.980Z,9.75
2022-08-28T00:07:58.243Z,9.25
2022-08-28T00:10:26.841Z,9.75
2022-08-28T00:12:57.543Z,9.60
2022-08-28T00:15:30.192Z,10.00
2022-08-28T00:17:58.329Z,9.60
2022-08-28T00:20:26.991Z,10.55
2022-08-28T00:22:55.688Z,10.23
2022-08-28T00:25:25.339Z,10.15
2022-08-28T00:27:55.207Z,10.55
2022-08-28T00:30:25.774Z,9.77
2022-08-28T00:32:55.499Z,10.27
2022-08-28T00:35:23.949Z,11.20
2022-08-28T00:37:54.807Z,11.18
2022-08-28T00:40:30.677Z,10.57
2022-08-28T00:43:03.181Z,10.90
2022-08-28T00:45:35.996Z,10.80
2022-08-28T00:48:06.421Z,10.95
2022-08-28T00:50:56.810Z,10.48
2022-08-28T00:53:32.779Z,10.02
2022-08-28T00:56:07.566Z,10.50
2022-08-28T00:58:39.115Z,10.75
2022-08-28T01:01:07.078Z,10.32
2022-08-28T01:03:35.827Z,10.85
2022-08-28T01:06:03.764Z,12.10
2022-08-28T01:08:31.357Z,10.35
2022-08-28T01:11:01.706Z,10.63
2022-08-28T01:13:30.604Z,10.73
2022-08-28T01:15:59.175Z,10.82
2022-08-28T01:18:27.815Z,10.93
2022-08-28T01:21:21.129Z,10.57
2022-08-28T01:23:53.555Z,11.95
2022-08-28T01:26:22.263Z,11.40
2022-08-28T01:28:50.088Z,11.35
2022-08-28T01:31:17.983Z,10.65
2022-08-28T01:33:46.721Z,11.05
2022-08-28T01:36:15.848Z,10.73
2022-08-28T01:38:46.357Z,11.30
2022-08-28T01:41:14.461Z,10.90
2022-08-28T01:43:42.994Z,11.40
2022-08-28T01:46:12.643Z,11.18
2022-08-28T01:48:43.071Z,11.60
2022-08-28T01:51:12.227Z,11.32
2022-08-28T01:53:41.652Z,11.32
2022-08-28T01:56:15.632Z,10.65
2022-08-28T01:58:43.720Z,10.57
2022-08-28T02:01:20.464Z,11.13
2022-08-28T02:03:48.573Z,10.95
2022-08-28T02:06:16.848Z,10.38
2022-08-28T02:08:45.192Z,11.38
2022-08-28T02:11:13.403Z,10.77
2022-08-28T02:13:40.994Z,10.98
2022-08-28T02:16:10.083Z,11.20
2022-08-28T02:18:38.300Z,10.95
2022-08-28T02:21:07.338Z,10.40
2022-08-28T02:23:36.270Z,10.93
2022-08-28T02:26:03.896Z,10.15
2022-08-28T02:28:31.412Z,10.80
2022-08-28T02:30:59.621Z,11.07
2022-08-28T02:33:27.269Z,11.25
2022-08-28T02:35:54.735Z,11.48
2022-08-28T02:38:22.794Z,11.18
2022-08-28T02:40:50.242Z,11.52
2022-08-28T02:43:17.647Z,11.05
2022-08-28T02:45:45.173Z,10.20
2022-08-28T02:48:17.393Z,10.80
2022-08-28T02:50:46.668Z,10.82
2022-08-28T02:53:14.724Z,10.10
2022-08-28T02:55:42.298Z,10.30
2022-08-28T02:58:09.925Z,10.30
2022-08-28T03:00:37.546Z,11.55
2022-08-28T03:03:05.438Z,11.18
2022-08-28T03:05:32.972Z,10.68
2022-08-28T03:08:00.618Z,11.27
2022-08-28T03:10:28.134Z,11.95
2022-08-28T03:12:55.522Z,12.30
2022-08-28T03:15:22.999Z,11.70
2022-08-28T03:17:50.681Z,11.65
2022-08-28T03:20:19.173Z,10.88
2022-08-28T03:23:05.452Z,11.98
2022-08-28T03:25:33.044Z,11.45
2022-08-28T03:28:00.531Z,11.40
2022-08-28T03:30:28.259Z,11.30
2022-08-28T03:32:55.758Z,10.93
2022-08-28T03:35:23.627Z,12.18
2022-08-28T03:37:51.117Z,11.82
2022-08-28T03:40:19.942Z,10.95
2022-08-28T03:42:52.992Z,12.07
2022-08-28T03:45:22.136Z,11.88
2022-08-28T03:47:50.880Z,12.85
2022-08-28T03:50:19.115Z,12.07
2022-08-28T03:52:47.687Z,12.27
2022-08-28T03:55:15.306Z,11.82
2022-08-28T03:57:42.781Z,12.27
2022-08-28T04:00:13.384Z,12.02
2022-08-28T04:02:41.904Z,12.15
2022-08-28T04:05:11.248Z,11.10
2022-08-28T04:07:40.236Z,10.95
2022-08-28T04:10:08.804Z,13.50
2022-08-28T04:12:37.178Z,13.32
2022-08-28T04:15:06.850Z,13.93
2022-08-28T04:17:37.097Z,14.25
2022-08-28T04:20:05.388Z,14.50
2022-08-28T04:22:33.134Z,13.82
2022-08-28T04:25:01.349Z,14.05
2022-08-28T04:27:28.839Z,14.05
2022-08-28T04:29:56.299Z,13.57
2022-08-28T04:32:23.865Z,13.43
2022-08-28T04:34:51.652Z,15.32
2022-08-28T04:37:19.584Z,14.68
2022-08-28T04:39:47.064Z,14.40
2022-08-28T04:42:14.783Z,13.90
2022-08-28T04:44:42.424Z,14.35
2022-08-28T04:47:09.902Z,14.43
2022-08-28T04:49:37.684Z,14.43
2022-08-28T04:52:05.485Z,14.23
2022-08-28T04:54:35.923Z,13.52
2022-08-28T04:57:05.292Z,13.57
2022-08-28T04:59:34.589Z,14.70
2022-08-28T05:02:02.995Z,14.35
2022-08-28T05:04:30.522Z,15.85
2022-08-28T05:06:57.913Z,15.38
2022-08-28T05:09:25.363Z,14.95
2022-08-28T05:11:53.583Z,14.00
2022-08-28T05:14:21.897Z,15.13
2022-08-28T05:16:52.994Z,14.90
2022-08-28T05:21:48.426Z,13.43
2022-08-28T05:24:16.191Z,14.23
2022-08-28T05:26:43.731Z,14.82
2022-08-28T05:29:17.033Z,15.63
2022-08-28T05:31:44.932Z,15.38
2022-08-28T05:34:13.943Z,16.90
2022-08-28T05:36:41.741Z,16.67
2022-08-28T05:39:12.115Z,15.48
2022-08-28T05:41:42.259Z,14.60
2022-08-28T05:44:11.866Z,14.93
2022-08-28T05:46:41.651Z,13.27
2022-08-28T05:49:10.392Z,14.02
2022-08-28T05:51:41.250Z,13.38
2022-08-28T05:54:09.260Z,12.90
2022-08-28T05:56:39.318Z,13.50
2022-08-28T05:59:09.343Z,13.57
2022-08-28T06:01:43.342Z,15.38
2022-08-28T06:04:15.954Z,16.52
2022-08-28T06:06:44.323Z,13.93
2022-08-28T06:09:28.810Z,12.73
2022-08-28T06:11:59.694Z,11.73
2022-08-28T06:14:27.567Z,11.53
2022-08-28T06:16:56.632Z,11.50
2022-08-28T06:19:26.330Z,11.90
2022-08-28T06:21:59.603Z,11.68
2022-08-28T06:24:28.505Z,12.10
2022-08-28T06:26:58.506Z,13.32
2022-08-28T06:29:27.555Z,13.43
2022-08-28T06:31:58.226Z,12.05
2022-08-28T06:34:26.253Z,10.52
2022-08-28T06:36:54.519Z,10.00
2022-08-28T06:39:23.319Z,8.57
2022-08-28T06:41:50.726Z,9.65
2022-08-28T06:44:20.653Z,9.32
2022-08-28T06:46:50.346Z,8.93
2022-08-28T06:49:18.694Z,8.48
2022-08-28T06:51:46.236Z,9.88
2022-08-28T06:54:21.122Z,8.80
2022-08-28T06:56:50.121Z,8.70
2022-08-28T06:59:17.647Z,8.52
2022-08-28T07:01:45.334Z,8.52
2022-08-28T07:04:14.720Z,8.43
2022-08-28T07:06:47.004Z,7.82
2022-08-28T07:12:23.442Z,8.13
2022-08-28T07:14:50.962Z,7.57
2022-08-28T07:17:18.427Z,8.02
2022-08-28T07:19:46.380Z,8.05
2022-08-28T07:22:13.862Z,8.60
2022-08-28T07:24:41.320Z,7.75
2022-08-28T07:27:09.245Z,7.32
2022-08-28T07:29:36.814Z,8.00
2022-08-28T07:32:04.286Z,8.57
2022-08-28T07:34:32.163Z,7.63
2022-08-28T07:37:04.288Z,7.75
2022-08-28T07:39:31.872Z,6.82
2022-08-28T07:41:59.250Z,6.80
2022-08-28T07:44:45.266Z,7.38
2022-08-28T07:47:12.915Z,7.28
2022-08-28T07:49:40.819Z,7.53
2022-08-28T07:52:09.846Z,7.05
2022-08-28T07:54:38.014Z,7.53
2022-08-28T07:57:07.648Z,7.03
2022-08-28T07:59:36.753Z,6.72
2022-08-28T08:02:06.252Z,6.70
2022-08-28T08:04:33.774Z,6.65
2022-08-28T08:07:04.078Z,6.60
2022-08-28T08:09:36.033Z,6.50
2022-08-28T08:12:05.779Z,6.90
2022-08-28T08:14:33.393Z,6.63
2022-08-28T08:17:05.220Z,6.50
2022-08-28T08:19:35.687Z,6.47
2022-08-28T08:22:03.360Z,6.47
2022-08-28T08:24:30.922Z,6.82
2022-08-28T08:27:01.165Z,7.15
2022-08-28T08:29:35.871Z,7.75
2022-08-28T08:32:07.220Z,6.25
2022-08-28T08:34:41.519Z,6.63
2022-08-28T08:37:09.565Z,7.40
2022-08-28T08:39:37.844Z,7.25
2022-08-28T08:42:10.650Z,6.47
2022-08-28T08:44:44.775Z,6.82
2022-08-28T08:47:42.480Z,6.72
2022-08-28T08:50:23.229Z,6.15
2022-08-28T08:52:50.710Z,6.97
2022-08-28T08:55:32.230Z,6.68
2022-08-28T08:58:09.368Z,7.13
2022-08-28T09:01:09.661Z,6.30
2022-08-28T09:03:47.019Z,6.10
2022-08-28T09:06:26.478Z,6.15
2022-08-28T09:09:00.095Z,6.38
2022-08-28T09:11:57.333Z,5.95
2022-08-28T09:14:33.734Z,6.45
2022-08-28T09:17:01.632Z,5.72
2022-08-28T09:19:29.837Z,5.18
2022-08-28T09:21:57.566Z,4.57
2022-08-28T09:24:33.264Z,5.80
2022-08-28T09:27:12.295Z,6.45
2022-08-28T09:29:47.446Z,5.78
2022-08-28T09:32:23.635Z,6.22
2022-08-28T09:35:28.361Z,5.95
2022-08-28T09:38:17.002Z,5.70
2022-08-28T09:41:03.324Z,5.90
2022-08-28T09:43:33.623Z,6.13
2022-08-28T09:46:05.992Z,6.03
2022-08-28T09:48:36.847Z,6.15
2022-08-28T09:51:10.222Z,5.82
2022-08-28T09:54:02.830Z,6.07
2022-08-28T09:56:41.014Z,5.93
2022-08-28T09:59:18.795Z,6.22
2022-08-28T10:01:58.442Z,6.30
2022-08-28T10:04:34.421Z,6.20
2022-08-28T10:07:22.432Z,5.35
2022-08-28T10:09:59.008Z,5.70
2022-08-28T10:12:46.935Z,5.65
2022-08-28T10:15:14.367Z,5.40
2022-08-28T10:18:12.837Z,5.90
2022-08-28T10:21:10.673Z,5.60
2022-08-28T10:24:11.558Z,7.03
2022-08-28T10:27:02.082Z,5.50
2022-08-28T10:29:52.082Z,5.20
2022-08-28T10:32:25.205Z,5.10
2022-08-28T10:35:15.234Z,4.68
2022-08-28T10:37:52.902Z,4.97
2022-08-28T10:40:41.962Z,5.18
2022-08-28T10:43:26.920Z,4.85
2022-08-28T10:45:55.283Z,4.95
2022-08-28T10:48:41.497Z,4.88
2022-08-28T10:51:39.461Z,4.40
2022-08-28T10:54:39.150Z,4.63
2022-08-28T10:57:35.014Z,4.47
2022-08-28T11:00:21.188Z,4.63
2022-08-28T11:03:32.997Z,5.13
2022-08-28T11:06:11.768Z,4.28
2022-08-28T11:08:40.082Z,4.35
2022-08-28T11:11:13.783Z,4.32
2022-08-28T11:13:48.286Z,3.70
2022-08-28T11:16:47.206Z,4.53
2022-08-28T11:19:43.887Z,3.80
2022-08-28T11:22:15.365Z,3.72
2022-08-28T11:24:49.210Z,3.60
2022-08-28T11:27:23.308Z,3.42
2022-08-28T11:30:11.715Z,3.67
2022-08-28T11:33:00.881Z,3.60
2022-08-28T11:35:31.064Z,3.80
2022-08-28T11:40:34.717Z,3.95
2022-08-28T11:43:18.856Z,3.72
2022-08-28T11:45:47.361Z,3.75
2022-08-28T11:48:33.528Z,4.05
2022-08-28T11:51:18.256Z,4.15
2022-08-28T11:54:03.700Z,4.28
2022-08-28T11:57:25.509Z,4.30
2022-08-28T12:00:21.021Z,4.60
2022-08-28T12:03:10.953Z,4.25
2022-08-28T12:05:45.191Z,4.20
2022-08-28T12:08:33.940Z,4.20
2022-08-28T12:11:01.640Z,4.25
2022-08-28T12:13:46.664Z,4.10
2022-08-28T12:16:15.704Z,5.07
2022-08-28T12:18:49.472Z,4.40
2022-08-28T12:21:21.677Z,3.83
2022-08-28T12:24:16.186Z,4.53
2022-08-28T12:26:50.208Z,4.25
2022-08-28T12:29:38.730Z,4.22
2022-08-28T12:32:19.647Z,4.63
2022-08-28T12:34:59.162Z,5.00
2022-08-28T12:37:45.589Z,5.00
2022-08-28T12:40:29.751Z,4.78
2022-08-28T12:43:00.480Z,4.80
2022-08-28T12:46:05.395Z,4.70
2022-08-28T12:48:52.955Z,4.70
2022-08-28T12:51:32.197Z,5.00
2022-08-28T12:54:05.162Z,4.72
2022-08-28T12:56:36.352Z,4.10
2022-08-28T12:59:37.235Z,4.30
2022-08-28T13:02:24.642Z,4.28
2022-08-28T13:04:57.702Z,4.50
2022-08-28T13:07:47.411Z,4.40
2022-08-28T13:10:20.524Z,4.32
2022-08-28T13:12:58.893Z,4.50
2022-08-28T13:15:48.669Z,4.82
2022-08-28T13:19:11.027Z,3.90
2022-08-28T13:21:47.428Z,4.65
2022-08-28T13:24:35.314Z,4.75
2022-08-28T13:27:15.165Z,4.75
2022-08-28T13:32:31.812Z,4.97
2022-08-28T13:35:16.818Z,4.80
2022-08-28T13:37:48.829Z,4.35
2022-08-28T13:40:53.361Z,4.30
2022-08-28T13:43:11.149Z,4.03
2022-08-28T13:45:44.052Z,4.45
2022-08-28T13:48:14.176Z,4.00
2022-08-28T13:53:16.788Z,3.10
2022-08-28T13:55:45.228Z,3.60
2022-08-28T13:58:13.965Z,3.53
2022-08-28T14:00:45.219Z,3.78
2022-08-28T14:03:31.837Z,4.00
2022-08-28T14:05:59.657Z,3.72
2022-08-28T14:08:27.225Z,3.97
2022-08-28T14:10:55.070Z,3.97
2022-08-28T14:13:25.200Z,3.65
2022-08-28T14:15:52.702Z,4.53
2022-08-28T14:18:21.032Z,3.92
2022-08-28T14:20:48.594Z,3.78
2022-08-28T14:23:17.076Z,3.58
2022-08-28T14:25:46.359Z,4.53
2022-08-28T14:28:17.210Z,3.65
2022-08-28T14:30:47.655Z,3.58
2022-08-28T14:33:18.825Z,4.22
2022-08-28T14:35:49.269Z,4.05
2022-08-28T14:38:17.245Z,3.70
2022-08-28T14:40:45.261Z,4.13
2022-08-28T14:43:14.159Z,3.90
2022-08-28T14:45:44.408Z,3.70
2022-08-28T14:48:12.400Z,3.90
2022-08-28T14:50:42.064Z,4.25
2022-08-28T14:53:10.027Z,4.00
2022-08-28T14:55:42.924Z,4.18
2022-08-28T14:58:10.977Z,4.57
2022-08-28T15:00:44.990Z,4.65
2022-08-28T15:03:14.064Z,4.47
2022-08-28T15:05:42.507Z,4.50
2022-08-28T15:08:13.194Z,4.93
2022-08-28T15:10:42.589Z,4.45
2022-08-28T15:13:10.725Z,4.82
2022-08-28T15:15:39.725Z,3.65
2022-08-28T15:18:11.057Z,3.00
2022-08-28T15:20:45.054Z,3.05
2022-08-28T15:23:14.926Z,4.18
2022-08-28T15:25:42.912Z,4.10
2022-08-28T15:28:10.431Z,4.05
2022-08-28T15:30:39.212Z,4.13
2022-08-28T15:33:07.491Z,4.17
2022-08-28T15:35:37.174Z,3.97
2022-08-28T15:38:05.862Z,3.80
2022-08-28T15:40:52.213Z,4.32
2022-08-28T15:43:20.632Z,4.68
2022-08-28T15:45:51.069Z,4.45
2022-08-28T15:48:18.547Z,4.10
2022-08-28T15:50:46.030Z,4.78
2022-08-28T15:53:13.637Z,5.00
2022-08-28T15:55:44.319Z,4.85
2022-08-28T15:58:13.668Z,4.85
2022-08-28T16:00:42.250Z,4.57
2022-08-28T16:03:09.801Z,5.45
2022-08-28T16:05:40.757Z,5.43
2022-08-28T16:08:09.986Z,5.13
2022-08-28T16:10:37.835Z,5.78
2022-08-28T16:13:06.802Z,5.47
2022-08-28T16:15:35.060Z,5.35
2022-08-28T16:18:02.669Z,5.28
2022-08-28T16:20:30.117Z,5.25
2022-08-28T16:22:57.622Z,5.20
2022-08-28T16:25:25.083Z,5.22
2022-08-28T16:27:52.579Z,5.88
2022-08-28T16:30:21.323Z,5.47
2022-08-28T16:32:52.160Z,5.82
2022-08-28T16:35:22.213Z,6.25
2022-08-28T16:37:50.533Z,4.97
2022-08-28T16:40:18.581Z,5.28
2022-08-28T16:42:51.426Z,5.65
2022-08-28T16:45:20.134Z,6.00
2022-08-28T16:47:47.970Z,6.13
2022-08-28T16:50:16.842Z,6.03
2022-08-28T16:52:44.421Z,6.60
2022-08-28T16:55:12.697Z,6.60
2022-08-28T16:57:40.252Z,6.70
2022-08-28T17:00:14.454Z,6.78
2022-08-28T17:02:42.969Z,7.53
2022-08-28T17:05:12.813Z,6.75
2022-08-28T17:07:40.355Z,6.13
2022-08-28T17:10:10.718Z,7.65
2022-08-28T17:12:39.082Z,7.47
2022-08-28T17:15:08.382Z,21.60
2022-08-28T17:17:36.436Z,20.85
2022-08-28T17:20:05.326Z,16.75
2022-08-28T17:22:32.945Z,18.85
2022-08-28T17:25:07.797Z,27.83
2022-08-28T17:27:35.806Z,27.77
2022-08-28T17:30:05.136Z,25.48
2022-08-28T17:32:32.820Z,29.00
2022-08-28T17:35:00.574Z,13.23
2022-08-28T17:37:28.364Z,11.82
2022-08-28T17:39:55.879Z,12.77
2022-08-28T17:42:23.670Z,14.23
2022-08-28T17:44:51.230Z,19.52
2022-08-28T17:47:18.835Z,19.60
2022-08-28T17:49:53.827Z,17.95
2022-08-28T17:52:21.623Z,14.65
2022-08-28T17:54:49.074Z,39.90
2022-08-28T17:57:16.804Z,27.90
2022-08-28T17:59:44.851Z,25.10
2022-08-28T18:02:16.731Z,23.45
2022-08-28T18:04:44.282Z,25.50
2022-08-28T18:07:14.946Z,21.33
2022-08-28T18:09:42.505Z,17.70
2022-08-28T18:12:12.761Z,20.48
2022-08-28T18:14:41.344Z,17.23
2022-08-28T18:17:10.960Z,15.77
2022-08-28T18:19:40.347Z,13.85
2022-08-28T18:22:12.695Z,124.82
2022-08-28T18:24:40.978Z,79.80
2022-08-28T18:27:09.561Z,63.58
2022-08-28T18:29:39.571Z,46.65
2022-08-28T18:32:07.778Z,54.10
2022-08-28T18:34:35.654Z,51.25
2022-08-28T18:37:03.201Z,57.05
2022-08-28T18:39:30.792Z,37.58
2022-08-28T18:41:58.601Z,35.85
2022-08-28T18:44:26.204Z,36.17
2022-08-28T18:46:56.728Z,34.70
2022-08-28T18:49:25.563Z,34.45
2022-08-28T18:51:53.969Z,32.67
2022-08-28T18:54:22.965Z,30.83
2022-08-28T18:56:50.635Z,41.78
2022-08-28T18:59:18.865Z,69.75
2022-08-28T19:01:46.505Z,34.40
2022-08-28T19:04:14.238Z,28.30
2022-08-28T19:06:42.099Z,27.10
2022-08-28T19:09:11.856Z,24.00
2022-08-28T19:11:48.674Z,23.25
2022-08-28T19:14:16.368Z,12.70
2022-08-28T19:16:44.121Z,22.85
2022-08-28T19:19:11.801Z,24.75
2022-08-28T19:21:39.777Z,25.75
2022-08-28T19:24:07.596Z,26.10
2022-08-28T19:26:35.316Z,22.80
2022-08-28T19:29:03.318Z,28.30
2022-08-28T19:31:34.244Z,25.60
2022-08-28T19:34:02.590Z,24.67
2022-08-28T19:36:30.306Z,25.75
2022-08-28T19:38:58.591Z,26.75
2022-08-28T19:41:26.583Z,25.70
2022-08-28T19:43:54.386Z,25.02
2022-08-28T19:46:22.707Z,24.13
2022-08-28T19:48:52.520Z,24.08
2022-08-28T19:51:24.044Z,27.02
2022-08-28T19:53:58.765Z,30.67
2022-08-28T19:56:28.313Z,35.28
2022-08-28T19:59:01.677Z,44.40
2022-08-28T20:01:31.500Z,77.50
2022-08-28T20:04:00.154Z,61.10
2022-08-28T20:06:30.435Z,49.85
2022-08-28T20:08:57.917Z,26.42
2022-08-28T20:11:30.160Z,25.05
2022-08-28T20:14:04.157Z,21.90
2022-08-28T20:16:36.039Z,18.35
2022-08-28T20:19:05.373Z,17.65
2022-08-28T20:21:37.093Z,17.10
2022-08-28T20:24:17.841Z,17.45
2022-08-28T20:26:45.260Z,19.02
2022-08-28T20:29:13.549Z,20.20
2022-08-28T20:31:43.874Z,17.27
2022-08-28T20:34:12.770Z,15.55
2022-08-28T20:36:40.473Z,20.75
2022-08-28T20:39:09.619Z,21.15
2022-08-28T20:41:40.076Z,19.15
2022-08-28T20:44:09.547Z,17.00
2022-08-28T20:46:40.937Z,15.70
2022-08-28T20:49:11.360Z,9.23
2022-08-28T20:52:01.180Z,10.35
2022-08-28T20:54:39.781Z,9.75
2022-08-28T20:57:11.090Z,9.43
2022-08-28T20:59:40.765Z,8.27
2022-08-28T21:02:11.309Z,9.40
2022-08-28T21:04:40.436Z,9.18
2022-08-28T21:07:08.505Z,8.48
2022-08-28T21:10:03.131Z,11.85
2022-08-28T21:12:24.689Z,11.40
2022-08-28T21:14:53.112Z,8.57
2022-08-28T21:17:29.599Z,11.70
2022-08-28T21:20:05.640Z,8.88
2022-08-28T21:22:35.902Z,10.48
2022-08-28T21:25:05.772Z,12.32
2022-08-28T21:27:33.950Z,9.90
2022-08-28T21:30:02.147Z,8.68
2022-08-28T21:32:32.765Z,8.52
2022-08-28T21:35:02.306Z,10.15
2022-08-28T21:37:30.092Z,10.50
2022-08-28T21:39:59.987Z,10.48
2022-08-28T21:42:28.359Z,9.07
2022-08-28T21:44:55.933Z,10.95
2022-08-28T21:47:24.647Z,12.88
2022-08-28T21:49:54.753Z,14.77
2022-08-28T21:52:23.977Z,15.33
2022-08-28T21:55:15.413Z,15.55
2022-08-28T21:57:43.169Z,11.77
2022-08-28T22:00:17.441Z,11.15
2022-08-28T22:02:45.583Z,8.60
2022-08-28T22:05:13.716Z,9.68
2022-08-28T22:07:41.258Z,9.38
2022-08-28T22:10:09.654Z,9.35
2022-08-28T22:12:37.109Z,9.60
2022-08-28T22:15:05.562Z,9.70
2022-08-28T22:17:33.106Z,9.48
2022-08-28T22:20:00.611Z,10.75
2022-08-28T22:22:46.461Z,10.10
2022-08-28T22:25:14.128Z,10.60
2022-08-28T22:27:42.002Z,10.13
2022-08-28T22:30:09.982Z,10.52
2022-08-28T22:32:37.479Z,9.77
2022-08-28T22:35:05.414Z,10.25
2022-08-28T22:37:33.054Z,10.07
2022-08-28T22:40:00.604Z,9.27
2022-08-28T22:42:28.117Z,9.43
2022-08-28T22:44:55.623Z,9.48
2022-08-28T22:47:23.083Z,9.00
2022-08-28T22:49:50.493Z,9.60
2022-08-28T22:52:17.960Z,9.05
2022-08-28T22:54:45.790Z,9.30
2022-08-28T22:57:14.732Z,8.50
2022-08-28T22:59:42.325Z,7.95
2022-08-28T23:02:12.197Z,8.30
2022-08-28T23:04:39.933Z,8.30
2022-08-28T23:07:07.469Z,7.78
2022-08-28T23:09:36.235Z,7.65
2022-08-28T23:12:05.316Z,8.45
2022-08-28T23:14:32.825Z,7.72
2022-08-28T23:17:00.298Z,8.27
2022-08-28T23:19:28.682Z,7.82
2022-08-28T23:21:57.884Z,7.97
2022-08-28T23:24:25.421Z,7.75
2022-08-28T23:26:53.078Z,8.18
2022-08-28T23:29:20.606Z,8.63
2022-08-28T23:31:48.209Z,7.88
2022-08-28T23:34:16.057Z,7.78
2022-08-28T23:36:43.608Z,7.72
2022-08-28T23:39:11.502Z,8.00
2022-08-28T23:41:39.157Z,7.95
2022-08-28T23:44:09.127Z,7.82
2022-08-28T23:46:41.343Z,7.45
2022-08-28T23:49:10.103Z,7.82
2022-08-28T23:51:38.051Z,7.65
2022-08-28T23:54:06.943Z,7.65
2022-08-28T23:56:34.795Z,7.82
2022-08-28T23:59:02.396Z,7.82
